createdAt,value
2023-04-02T00:00:40.335Z,124.29
2023-04-02T00:01:40.373Z,129.11
2023-04-02T00:02:40.466Z,126.06
2023-04-02T00:03:40.472Z,117.70
2023-04-02T00:04:40.429Z,122.38
2023-04-02T00:05:40.453Z,114.51
2023-04-02T00:06:40.702Z,121.54
2023-04-02T00:07:40.524Z,120.19
2023-04-02T00:08:40.519Z,105.65
2023-04-02T00:09:40.540Z,103.31
2023-04-02T00:10:40.573Z,107.96
2023-04-02T00:11:40.599Z,122.19
2023-04-02T00:12:40.627Z,120.13
2023-04-02T00:13:40.633Z,120.56
2023-04-02T00:14:40.663Z,128.51
2023-04-02T00:15:40.671Z,124.95
2023-04-02T00:16:40.750Z,126.50
2023-04-02T00:17:40.731Z,125.37
2023-04-02T00:18:40.763Z,125.16
2023-04-02T00:19:40.764Z,123.31
2023-04-02T00:20:40.809Z,130.30
2023-04-02T00:21:40.826Z,139.48
2023-04-02T00:22:40.865Z,127.69
2023-04-02T00:23:40.876Z,122.03
2023-04-02T00:24:40.915Z,111.50
2023-04-02T00:25:40.912Z,126.58
2023-04-02T00:26:40.985Z,137.00
2023-04-02T00:27:40.990Z,129.65
2023-04-02T00:28:41.012Z,134.65
2023-04-02T00:29:41.034Z,135.19
2023-04-02T00:30:41.038Z,132.55
2023-04-02T00:31:41.118Z,130.64
2023-04-02T00:32:41.169Z,128.23
2023-04-02T00:33:41.144Z,126.53
2023-04-02T00:34:41.148Z,133.42
2023-04-02T00:35:41.219Z,128.61
2023-04-02T00:36:41.210Z,136.84
2023-04-02T00:37:41.242Z,141.01
2023-04-02T00:38:41.279Z,141.71
2023-04-02T00:39:41.277Z,146.26
2023-04-02T00:40:41.313Z,145.41
2023-04-02T00:41:41.348Z,143.64
2023-04-02T00:42:41.365Z,146.77
2023-04-02T00:43:41.442Z,148.21
2023-04-02T00:44:41.424Z,150.13
2023-04-02T00:45:41.483Z,154.78
2023-04-02T00:46:41.494Z,157.30
2023-04-02T00:47:41.531Z,158.99
2023-04-02T00:48:41.564Z,161.23
2023-04-02T00:49:41.574Z,162.66
2023-04-02T00:50:41.617Z,160.65
2023-04-02T00:51:41.631Z,161.53
2023-04-02T00:52:41.672Z,157.09
2023-04-02T00:53:41.696Z,158.81
2023-04-02T00:54:41.734Z,161.85
2023-04-02T00:55:41.750Z,156.99
2023-04-02T00:56:41.782Z,158.37
2023-04-02T00:57:41.800Z,156.04
2023-04-02T00:58:41.828Z,157.37
2023-04-02T00:59:41.869Z,155.98
2023-04-02T01:00:41.886Z,155.72
2023-04-02T01:01:41.961Z,156.77
2023-04-02T01:02:42.026Z,154.44
2023-04-02T01:03:42.017Z,154.40
2023-04-02T01:04:41.994Z,157.07
2023-04-02T01:05:42.019Z,150.46
2023-04-02T01:06:42.069Z,153.87
2023-04-02T01:07:42.102Z,153.36
2023-04-02T01:08:42.126Z,164.62
2023-04-02T01:09:42.150Z,154.98
2023-04-02T01:10:42.157Z,152.02
2023-04-02T01:11:42.213Z,149.09
2023-04-02T01:12:42.231Z,151.94
2023-04-02T01:13:42.258Z,155.66
2023-04-02T01:14:42.287Z,163.13
2023-04-02T01:15:42.338Z,158.49
2023-04-02T01:16:42.376Z,158.73
2023-04-02T01:17:42.423Z,160.65
2023-04-02T01:18:42.392Z,160.42
2023-04-02T01:19:42.447Z,170.75
2023-04-02T01:20:42.444Z,163.99
2023-04-02T01:21:42.463Z,156.30
2023-04-02T01:22:42.554Z,159.57
2023-04-02T01:23:42.492Z,161.86
2023-04-02T01:24:42.520Z,159.95
2023-04-02T01:25:42.566Z,158.41
2023-04-02T01:26:42.583Z,168.77
2023-04-02T01:27:42.638Z,169.73
2023-04-02T01:28:42.626Z,166.44
2023-04-02T01:29:42.670Z,167.26
2023-04-02T01:30:42.679Z,159.21
2023-04-02T01:31:42.772Z,161.69
2023-04-02T01:32:42.760Z,157.87
2023-04-02T01:33:42.766Z,164.27
2023-04-02T01:34:42.799Z,170.89
2023-04-02T01:35:42.854Z,157.56
2023-04-02T01:36:42.833Z,152.92
2023-04-02T01:37:42.878Z,162.57
2023-04-02T01:38:42.905Z,150.65
2023-04-02T01:39:42.914Z,147.06
2023-04-02T01:40:42.941Z,157.84
2023-04-02T01:41:42.977Z,166.06
2023-04-02T01:42:43.021Z,168.46
2023-04-02T01:43:43.022Z,165.86
2023-04-02T01:44:43.061Z,162.60
2023-04-02T01:45:43.098Z,159.65
2023-04-02T01:46:43.149Z,158.40
2023-04-02T01:47:43.199Z,156.42
2023-04-02T01:48:43.169Z,159.32
2023-04-02T01:49:43.200Z,157.98
2023-04-02T01:50:43.215Z,169.87
2023-04-02T01:51:43.233Z,180.44
2023-04-02T01:52:43.264Z,177.04
2023-04-02T01:53:43.289Z,174.19
2023-04-02T01:54:43.361Z,176.93
2023-04-02T01:55:43.356Z,173.78
2023-04-02T01:56:43.374Z,164.52
2023-04-02T01:57:43.403Z,165.73
2023-04-02T01:58:43.446Z,161.81
2023-04-02T01:59:43.497Z,159.11
2023-04-02T02:00:43.531Z,162.84
2023-04-02T02:01:43.566Z,176.58
2023-04-02T02:02:43.688Z,165.59
2023-04-02T02:03:43.600Z,167.40
2023-04-02T02:04:43.646Z,171.41
2023-04-02T02:05:43.659Z,158.46
2023-04-02T02:06:43.680Z,153.47
2023-04-02T02:07:43.699Z,163.43
2023-04-02T02:08:43.742Z,156.67
2023-04-02T02:09:43.774Z,167.63
2023-04-02T02:10:43.806Z,155.22
2023-04-02T02:11:43.836Z,148.80
2023-04-02T02:12:43.884Z,151.59
2023-04-02T02:13:43.892Z,147.92
2023-04-02T02:14:43.940Z,161.49
2023-04-02T02:15:43.951Z,162.01
2023-04-02T02:16:44.102Z,157.60
2023-04-02T02:17:44.104Z,160.91
2023-04-02T02:18:44.058Z,161.17
2023-04-02T02:19:44.087Z,160.94
2023-04-02T02:20:44.122Z,148.27
2023-04-02T02:21:44.151Z,142.99
2023-04-02T02:22:44.185Z,151.27
2023-04-02T02:23:44.222Z,148.56
2023-04-02T02:24:44.265Z,147.97
2023-04-02T02:25:44.306Z,158.41
2023-04-02T02:26:44.340Z,164.33
2023-04-02T02:27:44.368Z,150.43
2023-04-02T02:28:44.408Z,153.52
2023-04-02T02:29:44.425Z,172.37
2023-04-02T02:30:44.475Z,176.23
2023-04-02T02:31:44.597Z,164.28
2023-04-02T02:32:44.591Z,164.46
2023-04-02T02:33:44.580Z,170.10
2023-04-02T02:34:44.601Z,163.94
2023-04-02T02:35:44.652Z,163.18
2023-04-02T02:36:44.660Z,167.83
2023-04-02T02:37:44.706Z,167.43
2023-04-02T02:38:44.730Z,168.73
2023-04-02T02:39:44.768Z,171.32
2023-04-02T02:40:44.859Z,167.56
2023-04-02T02:41:44.839Z,172.15
2023-04-02T02:42:44.882Z,169.91
2023-04-02T02:43:44.923Z,172.79
2023-04-02T02:44:44.954Z,174.29
2023-04-02T02:45:45.004Z,178.24
2023-04-02T02:46:45.020Z,178.19
2023-04-02T02:47:45.066Z,183.66
2023-04-02T02:48:45.097Z,183.82
2023-04-02T02:49:45.142Z,181.05
2023-04-02T02:50:45.139Z,182.51
2023-04-02T02:51:45.185Z,180.60
2023-04-02T02:52:45.227Z,176.98
2023-04-02T02:53:45.248Z,178.12
2023-04-02T02:54:45.280Z,177.29
2023-04-02T02:55:45.335Z,182.82
2023-04-02T02:56:45.364Z,188.17
2023-04-02T02:57:45.400Z,185.83
2023-04-02T02:58:45.412Z,183.01
2023-04-02T02:59:45.471Z,179.33
2023-04-02T03:00:45.498Z,177.36
2023-04-02T03:01:45.611Z,181.74
2023-04-02T03:02:45.645Z,175.60
2023-04-02T03:03:45.817Z,172.94
2023-04-02T03:04:45.643Z,167.52
2023-04-02T03:05:45.674Z,166.75
2023-04-02T03:06:45.713Z,165.10
2023-04-02T03:07:45.754Z,164.29
2023-04-02T03:08:45.770Z,165.39
2023-04-02T03:09:45.807Z,167.11
2023-04-02T03:10:45.862Z,174.35
2023-04-02T03:11:45.874Z,170.97
2023-04-02T03:12:45.920Z,170.91
2023-04-02T03:13:45.959Z,167.24
2023-04-02T03:14:45.981Z,167.00
2023-04-02T03:15:46.022Z,172.06
2023-04-02T03:16:46.060Z,179.89
2023-04-02T03:17:46.142Z,176.53
2023-04-02T03:18:46.146Z,173.29
2023-04-02T03:19:46.173Z,179.23
2023-04-02T03:20:46.211Z,178.68
2023-04-02T03:21:46.223Z,175.57
2023-04-02T03:22:46.274Z,182.17
2023-04-02T03:23:46.317Z,176.30
2023-04-02T03:24:46.356Z,178.51
2023-04-02T03:25:46.388Z,173.14
2023-04-02T03:26:46.392Z,180.77
2023-04-02T03:27:46.476Z,179.19
2023-04-02T03:28:46.475Z,175.33
2023-04-02T03:29:46.479Z,179.72
2023-04-02T03:30:46.526Z,181.58
2023-04-02T03:31:46.583Z,176.05
2023-04-02T03:32:46.663Z,175.92
2023-04-02T03:33:46.610Z,181.38
2023-04-02T03:34:46.627Z,186.17
2023-04-02T03:35:46.699Z,176.62
2023-04-02T03:36:46.709Z,175.10
2023-04-02T03:37:46.721Z,174.74
2023-04-02T03:38:46.759Z,177.51
2023-04-02T03:39:46.789Z,166.49
2023-04-02T03:40:46.823Z,166.79
2023-04-02T03:41:46.802Z,166.91
2023-04-02T03:42:46.788Z,167.46
2023-04-02T03:43:46.791Z,157.55
2023-04-02T03:44:46.759Z,160.32
2023-04-02T03:45:46.777Z,155.15
2023-04-02T03:46:46.788Z,162.03
2023-04-02T03:47:46.814Z,156.81
2023-04-02T03:48:46.729Z,161.26
2023-04-02T03:49:46.728Z,163.16
2023-04-02T03:50:46.760Z,169.63
2023-04-02T03:51:46.706Z,170.55
2023-04-02T03:52:46.708Z,175.00
2023-04-02T03:53:46.691Z,180.15
2023-04-02T03:54:53.142Z,177.34
2023-04-02T03:55:47.746Z,177.42
2023-04-02T03:56:46.740Z,178.06
2023-04-02T03:57:46.700Z,179.39
2023-04-02T03:58:46.700Z,182.02
2023-04-02T03:59:47.256Z,185.54
2023-04-02T04:00:46.665Z,188.14
2023-04-02T04:01:46.726Z,185.00
2023-04-02T04:02:46.702Z,187.22
2023-04-02T04:03:46.709Z,188.41
2023-04-02T04:04:46.673Z,191.33
2023-04-02T04:05:46.634Z,187.42
2023-04-02T04:06:46.643Z,191.65
2023-04-02T04:07:46.621Z,196.30
2023-04-02T04:08:46.663Z,192.76
2023-04-02T04:09:46.685Z,187.72
2023-04-02T04:10:46.759Z,191.68
2023-04-02T04:11:46.738Z,187.59
2023-04-02T04:12:46.757Z,182.36
2023-04-02T04:13:46.809Z,189.03
2023-04-02T04:14:46.843Z,178.87
2023-04-02T04:15:46.871Z,179.60
2023-04-02T04:16:46.945Z,181.68
2023-04-02T04:17:46.956Z,187.76
2023-04-02T04:18:46.969Z,187.77
2023-04-02T04:19:47.059Z,186.57
2023-04-02T04:20:47.070Z,188.35
2023-04-02T04:21:47.088Z,194.80
2023-04-02T04:22:47.134Z,192.10
2023-04-02T04:23:47.177Z,184.21
2023-04-02T04:24:47.198Z,180.79
2023-04-02T04:25:47.285Z,182.45
2023-04-02T04:26:47.270Z,187.60
2023-04-02T04:27:47.314Z,183.50
2023-04-02T04:28:47.347Z,175.93
2023-04-02T04:29:47.406Z,161.70
2023-04-02T04:30:47.415Z,164.56
2023-04-02T04:31:47.520Z,164.55
2023-04-02T04:32:47.523Z,161.60
2023-04-02T04:33:47.560Z,162.94
2023-04-02T04:34:47.568Z,158.24
2023-04-02T04:35:47.651Z,168.63
2023-04-02T04:36:47.667Z,166.77
2023-04-02T04:37:47.694Z,168.14
2023-04-02T04:38:47.712Z,165.35
2023-04-02T04:39:47.779Z,172.41
2023-04-02T04:40:47.796Z,163.39
2023-04-02T04:41:47.842Z,168.82
2023-04-02T04:42:47.879Z,181.64
2023-04-02T04:43:47.921Z,190.53
2023-04-02T04:44:47.937Z,193.69
2023-04-02T04:45:48.012Z,196.71
2023-04-02T04:46:48.029Z,193.84
2023-04-02T04:47:48.100Z,192.95
2023-04-02T04:48:48.106Z,187.94
2023-04-02T04:49:48.152Z,189.92
2023-04-02T04:50:48.156Z,184.72
2023-04-02T04:51:48.190Z,184.09
2023-04-02T04:52:48.249Z,181.87
2023-04-02T04:53:48.269Z,186.08
2023-04-02T04:54:48.309Z,185.38
2023-04-02T04:55:48.341Z,179.32
2023-04-02T04:56:48.432Z,185.39
2023-04-02T04:57:48.445Z,181.14
2023-04-02T04:58:48.453Z,176.89
2023-04-02T04:59:48.499Z,177.71
2023-04-02T05:00:49.956Z,176.85
2023-04-02T05:01:48.593Z,180.45
2023-04-02T05:02:48.639Z,185.06
2023-04-02T05:03:48.628Z,186.75
2023-04-02T05:04:48.703Z,190.54
2023-04-02T05:05:48.703Z,187.80
2023-04-02T05:06:48.741Z,185.39
2023-04-02T05:07:48.765Z,188.50
2023-04-02T05:08:48.819Z,184.79
2023-04-02T05:09:48.836Z,181.88
2023-04-02T05:10:48.867Z,178.00
2023-04-02T05:11:48.885Z,181.61
2023-04-02T05:12:48.939Z,182.15
2023-04-02T05:13:48.980Z,185.66
2023-04-02T05:14:49.000Z,181.97
2023-04-02T05:15:49.087Z,174.42
2023-04-02T05:16:49.118Z,167.08
2023-04-02T05:17:49.145Z,178.97
2023-04-02T05:18:49.161Z,189.27
2023-04-02T05:19:49.199Z,184.50
2023-04-02T05:20:49.225Z,183.07
2023-04-02T05:21:49.291Z,181.64
2023-04-02T05:22:49.305Z,176.38
2023-04-02T05:23:49.363Z,177.23
2023-04-02T05:24:49.389Z,178.04
2023-04-02T05:25:49.429Z,179.03
2023-04-02T05:26:49.447Z,176.61
2023-04-02T05:27:49.492Z,181.06
2023-04-02T05:28:49.526Z,178.52
2023-04-02T05:29:49.579Z,176.83
2023-04-02T05:30:49.615Z,170.67
2023-04-02T05:31:49.653Z,170.37
2023-04-02T05:32:49.726Z,171.80
2023-04-02T05:33:49.700Z,168.80
2023-04-02T05:34:49.738Z,176.01
2023-04-02T05:35:49.824Z,171.83
2023-04-02T05:36:49.830Z,176.64
2023-04-02T05:37:49.848Z,180.99
2023-04-02T05:38:49.883Z,178.02
2023-04-02T05:39:49.928Z,177.88
2023-04-02T05:40:49.957Z,174.29
2023-04-02T05:41:50.009Z,177.58
2023-04-02T05:42:50.024Z,182.54
2023-04-02T05:43:50.077Z,181.91
2023-04-02T05:44:50.088Z,179.12
2023-04-02T05:45:50.093Z,185.62
2023-04-02T05:46:50.161Z,180.74
2023-04-02T05:47:50.168Z,183.02
2023-04-02T05:48:50.216Z,183.18
2023-04-02T05:49:50.218Z,179.97
2023-04-02T05:50:50.266Z,187.34
2023-04-02T05:51:50.309Z,187.21
2023-04-02T05:52:50.326Z,190.91
2023-04-02T05:53:50.351Z,195.57
2023-04-02T05:54:50.389Z,193.93
2023-04-02T05:55:50.398Z,194.56
2023-04-02T05:56:50.463Z,193.08
2023-04-02T05:58:06.987Z,192.99
2023-04-02T05:58:51.521Z,193.27
2023-04-02T05:59:50.445Z,193.96
2023-04-02T06:00:50.452Z,195.17
2023-04-02T06:01:50.491Z,196.23
2023-04-02T06:02:50.512Z,197.45
2023-04-02T06:03:50.452Z,199.27
2023-04-02T06:04:50.428Z,197.82
2023-04-02T06:05:50.425Z,199.51
2023-04-02T06:06:50.404Z,196.73
2023-04-02T06:07:50.405Z,200.18
2023-04-02T06:08:50.404Z,196.27
2023-04-02T06:09:50.384Z,200.18
2023-04-02T06:10:50.397Z,201.76
2023-04-02T06:11:50.394Z,201.36
2023-04-02T06:12:50.390Z,201.94
2023-04-02T06:13:50.392Z,199.36
2023-04-02T06:14:50.416Z,198.17
2023-04-02T06:15:50.472Z,195.96
2023-04-02T06:16:50.480Z,195.02
2023-04-02T06:17:50.494Z,197.48
2023-04-02T06:18:50.508Z,198.56
2023-04-02T06:19:50.546Z,198.68
2023-04-02T06:20:50.564Z,203.22
2023-04-02T06:21:50.588Z,203.47
2023-04-02T06:22:50.597Z,204.14
2023-04-02T06:23:50.638Z,201.76
2023-04-02T06:24:50.644Z,200.99
2023-04-02T06:25:50.685Z,205.47
2023-04-02T06:26:50.700Z,203.91
2023-04-02T06:27:50.730Z,201.96
2023-04-02T06:28:50.735Z,204.72
2023-04-02T06:29:50.747Z,210.62
2023-04-02T06:30:50.794Z,214.71
2023-04-02T06:31:50.789Z,213.46
2023-04-02T06:32:50.892Z,214.95
2023-04-02T06:33:50.870Z,216.16
2023-04-02T06:34:50.820Z,216.31
2023-04-02T06:35:50.841Z,215.45
2023-04-02T06:36:50.869Z,211.24
2023-04-02T06:37:50.873Z,209.09
2023-04-02T06:38:50.857Z,214.23
2023-04-02T06:39:50.860Z,216.43
2023-04-02T06:40:50.888Z,213.17
2023-04-02T06:41:50.854Z,214.74
2023-04-02T06:42:50.875Z,216.27
2023-04-02T06:43:50.882Z,212.54
2023-04-02T06:44:50.856Z,214.10
2023-04-02T06:45:50.895Z,208.07
2023-04-02T06:46:52.438Z,208.06
2023-04-02T06:47:50.958Z,207.53
2023-04-02T06:48:50.846Z,204.16
2023-04-02T06:49:50.852Z,206.10
2023-04-02T06:50:50.851Z,208.42
2023-04-02T06:51:50.865Z,207.47
2023-04-02T06:52:50.867Z,209.79
2023-04-02T06:53:50.874Z,216.61
2023-04-02T06:54:50.873Z,215.14
2023-04-02T06:55:50.864Z,217.17
2023-04-02T06:56:50.873Z,216.29
2023-04-02T06:57:50.835Z,216.67
2023-04-02T06:58:50.854Z,218.80
2023-04-02T06:59:50.839Z,211.93
2023-04-02T07:00:50.859Z,207.21
2023-04-02T07:01:50.887Z,203.53
2023-04-02T07:02:50.942Z,208.30
2023-04-02T07:03:50.888Z,215.44
2023-04-02T07:04:50.919Z,218.31
2023-04-02T07:05:50.904Z,215.33
2023-04-02T07:06:50.940Z,219.24
2023-04-02T07:07:50.960Z,218.08
2023-04-02T07:08:50.978Z,219.98
2023-04-02T07:09:50.987Z,218.46
2023-04-02T07:10:51.032Z,217.98
2023-04-02T07:11:51.060Z,215.00
2023-04-02T07:12:51.162Z,223.76
2023-04-02T07:13:51.162Z,226.67
2023-04-02T07:14:51.218Z,216.83
2023-04-02T07:15:51.270Z,221.01
2023-04-02T07:16:51.319Z,222.23
2023-04-02T07:17:51.483Z,222.67
2023-04-02T07:18:51.453Z,221.42
2023-04-02T07:19:51.532Z,223.63
2023-04-02T07:20:52.173Z,220.17
2023-04-02T07:21:51.629Z,221.37
2023-04-02T07:22:51.690Z,221.45
2023-04-02T07:23:51.754Z,222.92
2023-04-02T07:24:51.842Z,220.00
2023-04-02T07:25:51.881Z,222.00
2023-04-02T07:26:51.947Z,219.26
2023-04-02T07:27:51.962Z,219.82
2023-04-02T07:28:52.007Z,218.24
2023-04-02T07:29:52.074Z,221.93
2023-04-02T07:30:52.064Z,217.87
2023-04-02T07:31:52.158Z,216.43
2023-04-02T07:32:52.219Z,216.41
2023-04-02T07:33:52.244Z,212.91
2023-04-02T07:34:52.271Z,211.84
2023-04-02T07:35:52.391Z,212.36
2023-04-02T07:36:52.353Z,206.26
2023-04-02T07:37:52.412Z,206.20
2023-04-02T07:38:52.479Z,204.70
2023-04-02T07:39:52.519Z,204.96
2023-04-02T07:40:52.584Z,204.22
2023-04-02T07:41:52.626Z,203.48
2023-04-02T07:42:52.684Z,206.10
2023-04-02T07:43:52.711Z,201.05
2023-04-02T07:44:52.744Z,200.61
2023-04-02T07:45:52.802Z,195.96
2023-04-02T07:46:52.859Z,193.29
2023-04-02T07:47:52.880Z,190.00
2023-04-02T07:48:52.901Z,190.30
2023-04-02T07:49:52.910Z,190.20
2023-04-02T07:50:52.958Z,193.35
2023-04-02T07:51:52.969Z,191.49
2023-04-02T07:52:53.011Z,194.29
2023-04-02T07:53:53.043Z,190.96
2023-04-02T07:54:53.090Z,189.26
2023-04-02T07:55:53.143Z,190.57
2023-04-02T07:56:53.205Z,186.48
2023-04-02T07:57:53.219Z,188.39
2023-04-02T07:58:53.259Z,180.22
2023-04-02T07:59:53.302Z,183.81
2023-04-02T08:00:53.345Z,179.97
2023-04-02T08:01:53.407Z,182.27
2023-04-02T08:02:53.506Z,186.51
2023-04-02T08:03:54.442Z,184.64
2023-04-02T08:04:53.536Z,185.11
2023-04-02T08:05:53.602Z,184.13
2023-04-02T08:06:53.669Z,182.02
2023-04-02T08:07:53.706Z,179.84
2023-04-02T08:08:53.781Z,179.57
2023-04-02T08:09:53.818Z,181.79
2023-04-02T08:10:53.905Z,177.40
2023-04-02T08:11:53.953Z,179.14
2023-04-02T08:12:53.994Z,182.22
2023-04-02T08:13:54.065Z,184.69
2023-04-02T08:14:54.129Z,183.18
2023-04-02T08:15:54.171Z,174.80
2023-04-02T08:16:54.340Z,177.80
2023-04-02T08:17:54.305Z,180.53
2023-04-02T08:18:54.320Z,179.13
2023-04-02T08:19:55.444Z,174.02
2023-04-02T08:20:54.424Z,171.45
2023-04-02T08:21:54.495Z,172.46
2023-04-02T08:22:54.532Z,173.74
2023-04-02T08:23:54.585Z,172.67
2023-04-02T08:24:54.648Z,177.96
2023-04-02T08:25:54.713Z,170.86
2023-04-02T08:26:54.751Z,168.61
2023-04-02T08:27:54.754Z,167.38
2023-04-02T08:28:54.799Z,166.74
2023-04-02T08:29:54.842Z,170.50
2023-04-02T08:30:54.945Z,163.03
2023-04-02T08:31:54.925Z,159.80
2023-04-02T08:32:54.996Z,160.60
2023-04-02T08:33:55.011Z,158.87
2023-04-02T08:34:55.066Z,160.67
2023-04-02T08:35:55.164Z,154.35
2023-04-02T08:36:55.159Z,154.02
2023-04-02T08:37:55.215Z,146.17
2023-04-02T08:38:55.286Z,146.32
2023-04-02T08:39:55.310Z,146.29
2023-04-02T08:40:55.380Z,146.61
2023-04-02T08:41:55.442Z,142.72
2023-04-02T08:42:55.466Z,146.00
2023-04-02T08:43:55.554Z,139.43
2023-04-02T08:44:55.568Z,139.01
2023-04-02T08:45:55.654Z,137.72
2023-04-02T08:46:55.684Z,133.75
2023-04-02T08:47:55.765Z,138.94
2023-04-02T08:48:55.813Z,137.11
2023-04-02T08:49:55.872Z,135.54
2023-04-02T08:50:55.918Z,130.58
2023-04-02T08:51:55.987Z,131.73
2023-04-02T08:52:56.057Z,133.32
2023-04-02T08:53:56.107Z,131.26
2023-04-02T08:54:56.196Z,129.41
2023-04-02T08:55:56.262Z,127.24
2023-04-02T08:56:56.343Z,125.03
2023-04-02T08:57:56.355Z,130.14
2023-04-02T08:58:56.399Z,131.18
2023-04-02T08:59:56.462Z,128.45
2023-04-02T09:00:56.517Z,130.22
2023-04-02T09:01:56.723Z,128.62
2023-04-02T09:02:56.633Z,127.30
2023-04-02T09:03:56.601Z,135.84
2023-04-02T09:04:56.679Z,127.22
2023-04-02T09:05:56.681Z,124.47
2023-04-02T09:06:56.728Z,124.03
2023-04-02T09:07:56.730Z,125.55
2023-04-02T09:08:56.775Z,118.90
2023-04-02T09:09:56.868Z,116.66
2023-04-02T09:10:56.842Z,121.25
2023-04-02T09:11:56.888Z,116.68
2023-04-02T09:12:56.911Z,117.03
2023-04-02T09:13:56.947Z,114.56
2023-04-02T09:14:56.968Z,109.50
2023-04-02T09:15:57.040Z,113.32
2023-04-02T09:16:57.053Z,119.01
2023-04-02T09:17:59.074Z,116.99
2023-04-02T09:18:57.265Z,116.65
2023-04-02T09:19:57.296Z,114.52
2023-04-02T09:20:57.319Z,118.47
2023-04-02T09:21:57.351Z,113.71
2023-04-02T09:22:57.364Z,115.10
2023-04-02T09:23:57.432Z,110.20
2023-04-02T09:24:57.489Z,104.72
2023-04-02T09:26:04.248Z,109.82
2023-04-02T09:26:58.481Z,110.23
2023-04-02T09:27:57.484Z,111.50
2023-04-02T09:28:57.462Z,111.95
2023-04-02T09:29:57.461Z,111.53
2023-04-02T09:30:57.436Z,107.04
2023-04-02T09:31:57.490Z,103.70
2023-04-02T09:32:57.486Z,100.77
2023-04-02T09:33:57.434Z,104.10
2023-04-02T09:34:57.429Z,100.38
2023-04-02T09:35:57.471Z,103.02
2023-04-02T09:36:57.486Z,108.73
2023-04-02T09:37:57.520Z,105.22
2023-04-02T09:38:57.553Z,94.35
2023-04-02T09:39:57.577Z,99.99
2023-04-02T09:40:57.623Z,106.21
2023-04-02T09:42:05.595Z,106.77
2023-04-02T09:42:58.652Z,107.02
2023-04-02T09:43:57.647Z,105.80
2023-04-02T09:44:57.631Z,108.05
2023-04-02T09:45:57.630Z,101.99
2023-04-02T09:46:57.666Z,94.78
2023-04-02T09:47:57.642Z,97.19
2023-04-02T09:48:57.608Z,99.31
2023-04-02T09:49:57.596Z,100.25
2023-04-02T09:50:57.610Z,97.84
2023-04-02T09:51:57.610Z,99.46
2023-04-02T09:52:57.663Z,97.48
2023-04-02T09:53:57.713Z,96.43
2023-04-02T09:54:57.759Z,91.20
2023-04-02T09:55:57.783Z,100.06
2023-04-02T09:56:57.883Z,86.74
2023-04-02T09:57:58.850Z,86.67
2023-04-02T09:58:57.989Z,82.68
2023-04-02T09:59:58.042Z,79.34
2023-04-02T10:00:58.094Z,76.05
2023-04-02T10:01:58.137Z,81.56
2023-04-02T10:02:58.248Z,74.33
2023-04-02T10:03:58.282Z,70.70
2023-04-02T10:04:58.283Z,71.87
2023-04-02T10:05:58.353Z,70.54
2023-04-02T10:06:58.395Z,72.99
2023-04-02T10:07:58.432Z,67.36
2023-04-02T10:08:58.489Z,75.35
2023-04-02T10:09:58.554Z,78.15
2023-04-02T10:10:58.608Z,73.66
2023-04-02T10:11:58.693Z,77.58
2023-04-02T10:12:58.732Z,71.72
2023-04-02T10:13:58.784Z,71.86
2023-04-02T10:14:58.813Z,75.46
2023-04-02T10:15:58.846Z,67.05
2023-04-02T10:16:58.940Z,63.07
2023-04-02T10:17:58.982Z,65.39
2023-04-02T10:18:58.965Z,70.77
2023-04-02T10:19:58.991Z,69.57
2023-04-02T10:20:59.030Z,65.63
2023-04-02T10:21:59.093Z,62.83
2023-04-02T10:22:59.141Z,64.63
2023-04-02T10:23:59.188Z,64.52
2023-04-02T10:24:59.252Z,60.48
2023-04-02T10:25:59.300Z,57.27
2023-04-02T10:26:59.329Z,58.82
2023-04-02T10:27:59.328Z,58.02
2023-04-02T10:28:59.379Z,60.54
2023-04-02T10:29:59.393Z,60.84
2023-04-02T10:30:59.457Z,62.59
2023-04-02T10:31:59.442Z,67.81
2023-04-02T10:32:59.524Z,66.82
2023-04-02T10:33:59.532Z,64.23
2023-04-02T10:34:59.586Z,61.98
2023-04-02T10:35:59.621Z,67.46
2023-04-02T10:36:59.663Z,62.34
2023-04-02T10:37:59.679Z,69.35
2023-04-02T10:38:59.717Z,75.20
2023-04-02T10:39:59.726Z,65.45
2023-04-02T10:40:59.807Z,64.41
2023-04-02T10:41:59.834Z,56.59
2023-04-02T10:42:59.840Z,58.68
2023-04-02T10:44:09.179Z,57.93
2023-04-02T10:45:00.867Z,58.13
2023-04-02T10:45:59.863Z,58.94
2023-04-02T10:46:59.854Z,59.45
2023-04-02T10:47:59.915Z,66.02
2023-04-02T10:48:59.881Z,72.03
2023-04-02T10:49:59.835Z,64.42
2023-04-02T10:50:59.837Z,71.80
2023-04-02T10:51:59.814Z,66.46
2023-04-02T10:52:59.858Z,60.24
2023-04-02T10:53:59.912Z,65.32
2023-04-02T10:54:59.905Z,69.95
2023-04-02T10:55:59.962Z,60.27
2023-04-02T10:57:00.018Z,58.03
2023-04-02T10:58:00.022Z,61.86
2023-04-02T10:59:00.085Z,68.46
2023-04-02T11:00:00.195Z,57.52
2023-04-02T11:01:00.179Z,64.38
2023-04-02T11:02:00.329Z,71.25
2023-04-02T11:03:00.348Z,70.10
2023-04-02T11:04:00.423Z,61.05
2023-04-02T11:05:01.948Z,61.66
2023-04-02T11:06:00.437Z,55.37
2023-04-02T11:07:11.208Z,46.91
2023-04-02T11:08:01.582Z,47.06
2023-04-02T11:09:00.449Z,47.92
2023-04-02T11:10:00.464Z,46.36
2023-04-02T11:11:00.842Z,49.91
2023-04-02T11:12:00.442Z,47.94
2023-04-02T11:13:00.433Z,46.41
2023-04-02T11:14:00.448Z,50.25
2023-04-02T11:15:00.413Z,48.74
2023-04-02T11:16:00.482Z,42.58
2023-04-02T11:17:00.472Z,47.40
2023-04-02T11:18:00.564Z,46.26
2023-04-02T11:19:00.567Z,50.62
2023-04-02T11:20:00.604Z,46.70
2023-04-02T11:21:00.651Z,39.48
2023-04-02T11:22:02.583Z,46.64
2023-04-02T11:23:00.656Z,44.65
2023-04-02T11:24:00.647Z,54.18
2023-04-02T11:25:00.649Z,53.75
2023-04-02T11:26:00.623Z,51.58
2023-04-02T11:27:00.604Z,51.41
2023-04-02T11:28:00.616Z,49.14
2023-04-02T11:29:00.638Z,46.72
2023-04-02T11:30:00.603Z,54.40
2023-04-02T11:31:00.691Z,58.28
2023-04-02T11:32:00.591Z,61.96
2023-04-02T11:33:00.583Z,64.42
2023-04-02T11:34:00.574Z,62.65
2023-04-02T11:35:07.192Z,63.16
2023-04-02T11:36:01.606Z,63.94
2023-04-02T11:37:00.565Z,65.78
2023-04-02T11:38:00.563Z,67.56
2023-04-02T11:39:11.025Z,70.16
2023-04-02T11:40:01.523Z,63.73
2023-04-02T11:41:00.526Z,61.10
2023-04-02T11:42:00.523Z,69.14
2023-04-02T11:43:00.515Z,66.90
2023-04-02T11:44:00.505Z,60.29
2023-04-02T11:45:00.500Z,53.79
2023-04-02T11:46:00.506Z,68.84
2023-04-02T11:47:00.543Z,65.23
2023-04-02T11:48:00.692Z,62.51
2023-04-02T11:49:00.495Z,63.96
2023-04-02T11:50:00.557Z,63.39
2023-04-02T11:51:00.592Z,64.78
2023-04-02T11:52:11.262Z,68.15
2023-04-02T11:53:01.617Z,68.30
2023-04-02T11:54:00.630Z,65.15
2023-04-02T11:55:00.595Z,70.54
2023-04-02T11:56:00.573Z,70.46
2023-04-02T11:57:00.594Z,62.89
2023-04-02T11:58:00.583Z,63.24
2023-04-02T11:59:00.555Z,60.25
2023-04-02T12:00:00.604Z,76.42
2023-04-02T12:01:00.539Z,77.60
2023-04-02T12:02:00.584Z,86.97
2023-04-02T12:03:00.552Z,72.12
2023-04-02T12:04:00.585Z,73.85
2023-04-02T12:05:00.669Z,72.83
2023-04-02T12:06:02.834Z,79.82
2023-04-02T12:07:00.668Z,77.56
2023-04-02T12:08:00.657Z,67.26
2023-04-02T12:09:00.648Z,56.22
2023-04-02T12:10:00.659Z,61.35
2023-04-02T12:11:00.622Z,51.82
2023-04-02T12:12:00.637Z,38.29
2023-04-02T12:13:00.625Z,50.44
2023-04-02T12:14:00.638Z,32.96
2023-04-02T12:15:00.590Z,43.59
2023-04-02T12:16:00.600Z,41.79
2023-04-02T12:17:00.661Z,34.95
2023-04-02T12:18:00.597Z,25.00
2023-04-02T12:19:00.602Z,31.48
2023-04-02T12:20:00.588Z,29.26
2023-04-02T12:21:00.553Z,31.15
2023-04-02T12:22:00.585Z,36.60
2023-04-02T12:23:00.536Z,33.22
2023-04-02T12:24:00.581Z,46.39
2023-04-02T12:25:00.559Z,32.32
2023-04-02T12:26:00.530Z,39.67
2023-04-02T12:27:00.522Z,33.60
2023-04-02T12:28:00.516Z,28.94
2023-04-02T12:29:00.513Z,28.90
2023-04-02T12:30:00.490Z,33.79
2023-04-02T12:31:00.537Z,32.18
2023-04-02T12:32:00.493Z,38.34
2023-04-02T12:33:00.522Z,45.95
2023-04-02T12:34:00.462Z,50.23